sensor_id;sensor_type;location;lat;lon;timestamp;pressure;altitude;pressure_sealevel;temperature;humidity
5952;BME280;3001;42.622;23.194;2022-12-18T00:02:02;91935.53;;;11.57;92.62
5952;BME280;3001;42.622;23.194;2022-12-18T00:04:30;91935.81;;;11.69;92.78
5952;BME280;3001;42.622;23.194;2022-12-18T00:06:57;91933.13;;;11.60;92.69
5952;BME280;3001;42.622;23.194;2022-12-18T00:09:24;91928.88;;;11.37;93.54
5952;BME280;3001;42.622;23.194;2022-12-18T00:11:50;91937.81;;;11.45;93.37
5952;BME280;3001;42.622;23.194;2022-12-18T00:14:17;91934.66;;;11.34;93.86
5952;BME280;3001;42.622;23.194;2022-12-18T00:16:45;91946.19;;;11.42;92.03
5952;BME280;3001;42.622;23.194;2022-12-18T00:19:13;91952.28;;;11.51;92.25
5952;BME280;3001;42.622;23.194;2022-12-18T00:21:42;91937.38;;;11.56;92.22
5952;BME280;3001;42.622;23.194;2022-12-18T00:24:09;91947.28;;;11.68;91.84
5952;BME280;3001;42.622;23.194;2022-12-18T00:26:38;91946.59;;;11.49;92.33
5952;BME280;3001;42.622;23.194;2022-12-18T00:29:07;91943.03;;;11.45;92.71
5952;BME280;3001;42.622;23.194;2022-12-18T00:31:35;91943.09;;;11.40;92.95
5952;BME280;3001;42.622;23.194;2022-12-18T00:34:02;91948.50;;;11.43;92.56
5952;BME280;3001;42.622;23.194;2022-12-18T00:36:31;91959.19;;;11.42;93.38
5952;BME280;3001;42.622;23.194;2022-12-18T00:39:02;91959.28;;;11.50;93.03
5952;BME280;3001;42.622;23.194;2022-12-18T00:41:29;91960.38;;;11.63;92.42
5952;BME280;3001;42.622;23.194;2022-12-18T00:44:11;91961.72;;;11.47;92.77
5952;BME280;3001;42.622;23.194;2022-12-18T00:46:38;91964.38;;;11.15;93.92
5952;BME280;3001;42.622;23.194;2022-12-18T00:49:05;91961.25;;;11.45;93.59
5952;BME280;3001;42.622;23.194;2022-12-18T00:51:31;91968.47;;;11.48;92.28
5952;BME280;3001;42.622;23.194;2022-12-18T00:54:00;91973.56;;;11.53;91.89
5952;BME280;3001;42.622;23.194;2022-12-18T00:56:26;91967.81;;;11.56;92.18
5952;BME280;3001;42.622;23.194;2022-12-18T00:58:53;91970.28;;;11.47;92.04
5952;BME280;3001;42.622;23.194;2022-12-18T01:01:20;91975.97;;;11.49;92.05
5952;BME280;3001;42.622;23.194;2022-12-18T01:03:47;91983.97;;;11.53;91.66
5952;BME280;3001;42.622;23.194;2022-12-18T01:06:16;91976.94;;;11.53;91.06
5952;BME280;3001;42.622;23.194;2022-12-18T01:08:43;91978.91;;;11.61;90.50
5952;BME280;3001;42.622;23.194;2022-12-18T01:11:14;91976.28;;;11.48;90.95
5952;BME280;3001;42.622;23.194;2022-12-18T01:13:42;91988.03;;;11.59;89.53
5952;BME280;3001;42.622;23.194;2022-12-18T01:16:11;91993.84;;;11.56;89.76
5952;BME280;3001;42.622;23.194;2022-12-18T01:18:38;91987.25;;;11.45;89.42
5952;BME280;3001;42.622;23.194;2022-12-18T01:21:06;91989.75;;;11.50;89.09
5952;BME280;3001;42.622;23.194;2022-12-18T01:23:33;91988.59;;;11.42;89.41
5952;BME280;3001;42.622;23.194;2022-12-18T01:26:04;91985.69;;;11.30;89.80
5952;BME280;3001;42.622;23.194;2022-12-18T01:28:32;91984.72;;;11.40;88.49
5952;BME280;3001;42.622;23.194;2022-12-18T01:31:10;91994.84;;;11.28;88.48
5952;BME280;3001;42.622;23.194;2022-12-18T01:33:36;91991.63;;;11.04;89.91
5952;BME280;3001;42.622;23.194;2022-12-18T01:36:03;91998.84;;;11.07;89.25
5952;BME280;3001;42.622;23.194;2022-12-18T01:38:30;91998.72;;;10.98;89.40
5952;BME280;3001;42.622;23.194;2022-12-18T01:40:57;91990.50;;;10.91;88.88
5952;BME280;3001;42.622;23.194;2022-12-18T01:43:44;92001.28;;;10.85;90.10
5952;BME280;3001;42.622;23.194;2022-12-18T01:46:11;92005.47;;;10.81;89.47
5952;BME280;3001;42.622;23.194;2022-12-18T01:48:39;92014.63;;;10.78;89.26
5952;BME280;3001;42.622;23.194;2022-12-18T01:51:09;92014.03;;;10.68;89.14
5952;BME280;3001;42.622;23.194;2022-12-18T01:53:37;92017.09;;;10.70;89.48
5952;BME280;3001;42.622;23.194;2022-12-18T01:56:05;92018.50;;;10.62;89.09
5952;BME280;3001;42.622;23.194;2022-12-18T01:58:37;92013.97;;;10.54;89.20
5952;BME280;3001;42.622;23.194;2022-12-18T02:01:07;92016.44;;;10.46;89.19
5952;BME280;3001;42.622;23.194;2022-12-18T02:03:34;92011.16;;;10.51;89.48
5952;BME280;3001;42.622;23.194;2022-12-18T02:06:06;92018.28;;;10.59;89.43
5952;BME280;3001;42.622;23.194;2022-12-18T02:08:41;92020.72;;;10.55;89.41
5952;BME280;3001;42.622;23.194;2022-12-18T02:11:14;92017.31;;;10.55;89.91
5952;BME280;3001;42.622;23.194;2022-12-18T02:13:46;92026.66;;;10.56;89.24
5952;BME280;3001;42.622;23.194;2022-12-18T02:16:24;92024.06;;;10.74;88.32
5952;BME280;3001;42.622;23.194;2022-12-18T02:18:56;92029.00;;;10.89;88.17
5952;BME280;3001;42.622;23.194;2022-12-18T02:21:31;92038.94;;;10.50;89.79
5952;BME280;3001;42.622;23.194;2022-12-18T02:24:12;92033.44;;;10.70;88.88
5952;BME280;3001;42.622;23.194;2022-12-18T02:26:45;92037.63;;;10.53;89.56
5952;BME280;3001;42.622;23.194;2022-12-18T02:29:16;92042.06;;;10.52;89.31
5952;BME280;3001;42.622;23.194;2022-12-18T02:31:47;92040.13;;;10.58;89.08
5952;BME280;3001;42.622;23.194;2022-12-18T02:34:17;92038.94;;;10.50;88.14
5952;BME280;3001;42.622;23.194;2022-12-18T02:36:46;92044.28;;;10.40;88.31
5952;BME280;3001;42.622;23.194;2022-12-18T02:39:15;92043.56;;;10.35;88.75
5952;BME280;3001;42.622;23.194;2022-12-18T02:41:44;92043.66;;;10.30;89.66
5952;BME280;3001;42.622;23.194;2022-12-18T02:44:13;92045.69;;;10.33;89.53
5952;BME280;3001;42.622;23.194;2022-12-18T02:46:43;92043.66;;;10.30;89.87
5952;BME280;3001;42.622;23.194;2022-12-18T02:49:21;92048.34;;;10.28;89.48
5952;BME280;3001;42.622;23.194;2022-12-18T02:51:53;92047.16;;;10.21;89.33
5952;BME280;3001;42.622;23.194;2022-12-18T02:54:32;92043.84;;;10.15;90.11
5952;BME280;3001;42.622;23.194;2022-12-18T02:57:12;92044.06;;;10.19;89.57
5952;BME280;3001;42.622;23.194;2022-12-18T02:59:47;92047.78;;;10.13;89.90
5952;BME280;3001;42.622;23.194;2022-12-18T03:02:21;92052.69;;;10.14;88.86
5952;BME280;3001;42.622;23.194;2022-12-18T03:04:57;92047.63;;;9.99;90.06
5952;BME280;3001;42.622;23.194;2022-12-18T03:07:37;92055.41;;;10.04;89.41
5952;BME280;3001;42.622;23.194;2022-12-18T03:10:09;92067.63;;;9.99;89.56
5952;BME280;3001;42.622;23.194;2022-12-18T03:12:42;92059.06;;;10.03;89.50
5952;BME280;3001;42.622;23.194;2022-12-18T03:15:13;92069.44;;;9.98;90.35
5952;BME280;3001;42.622;23.194;2022-12-18T03:17:45;92061.50;;;9.90;90.08
5952;BME280;3001;42.622;23.194;2022-12-18T03:20:15;92064.81;;;9.95;89.63
5952;BME280;3001;42.622;23.194;2022-12-18T03:22:46;92049.06;;;9.87;89.78
5952;BME280;3001;42.622;23.194;2022-12-18T03:25:16;92077.34;;;9.88;90.73
5952;BME280;3001;42.622;23.194;2022-12-18T03:27:48;92070.34;;;9.89;91.15
5952;BME280;3001;42.622;23.194;2022-12-18T03:30:16;92070.41;;;9.84;91.80
5952;BME280;3001;42.622;23.194;2022-12-18T03:32:47;92067.25;;;9.87;91.71
5952;BME280;3001;42.622;23.194;2022-12-18T03:35:20;92071.69;;;9.86;91.22
5952;BME280;3001;42.622;23.194;2022-12-18T03:37:48;92086.47;;;9.86;90.94
5952;BME280;3001;42.622;23.194;2022-12-18T03:40:15;92089.84;;;9.86;90.59
5952;BME280;3001;42.622;23.194;2022-12-18T03:42:48;92110.03;;;9.89;89.81
5952;BME280;3001;42.622;23.194;2022-12-18T03:45:20;92112.19;;;9.82;89.64
5952;BME280;3001;42.622;23.194;2022-12-18T03:47:58;92114.13;;;9.72;90.71
5952;BME280;3001;42.622;23.194;2022-12-18T03:50:33;92109.47;;;9.69;91.02
5952;BME280;3001;42.622;23.194;2022-12-18T03:53:09;92106.59;;;9.70;90.70
5952;BME280;3001;42.622;23.194;2022-12-18T03:55:41;92120.31;;;9.76;90.59
5952;BME280;3001;42.622;23.194;2022-12-18T03:58:13;92116.44;;;9.73;90.36
5952;BME280;3001;42.622;23.194;2022-12-18T04:00:44;92118.34;;;9.63;89.97
5952;BME280;3001;42.622;23.194;2022-12-18T04:03:11;92119.09;;;9.68;89.22
5952;BME280;3001;42.622;23.194;2022-12-18T04:05:39;92125.63;;;9.61;89.34
5952;BME280;3001;42.622;23.194;2022-12-18T04:08:07;92121.50;;;9.60;89.38
5952;BME280;3001;42.622;23.194;2022-12-18T04:10:33;92118.63;;;9.61;89.49
5952;BME280;3001;42.622;23.194;2022-12-18T04:13:00;92124.81;;;9.65;89.64
5952;BME280;3001;42.622;23.194;2022-12-18T04:15:29;92124.53;;;9.67;89.91
5952;BME280;3001;42.622;23.194;2022-12-18T04:17:55;92131.81;;;9.65;89.92
5952;BME280;3001;42.622;23.194;2022-12-18T04:20:22;92131.88;;;9.60;90.37
5952;BME280;3001;42.622;23.194;2022-12-18T04:22:49;92141.78;;;9.81;89.70
5952;BME280;3001;42.622;23.194;2022-12-18T04:25:15;92138.97;;;9.78;90.19
5952;BME280;3001;42.622;23.194;2022-12-18T04:27:42;92152.50;;;10.03;89.24
5952;BME280;3001;42.622;23.194;2022-12-18T04:30:10;92155.66;;;9.95;88.61
5952;BME280;3001;42.622;23.194;2022-12-18T04:32:38;92151.50;;;9.94;88.57
5952;BME280;3001;42.622;23.194;2022-12-18T04:35:05;92160.47;;;9.78;88.51
5952;BME280;3001;42.622;23.194;2022-12-18T04:37:35;92156.88;;;9.74;88.76
5952;BME280;3001;42.622;23.194;2022-12-18T04:40:02;92160.81;;;9.72;89.06
5952;BME280;3001;42.622;23.194;2022-12-18T04:42:29;92154.09;;;9.71;88.95
5952;BME280;3001;42.622;23.194;2022-12-18T04:44:56;92162.13;;;9.69;89.61
5952;BME280;3001;42.622;23.194;2022-12-18T04:47:23;92166.78;;;9.72;89.08
5952;BME280;3001;42.622;23.194;2022-12-18T04:49:51;92172.69;;;9.78;88.66
5952;BME280;3001;42.622;23.194;2022-12-18T04:52:17;92176.53;;;9.80;88.54
5952;BME280;3001;42.622;23.194;2022-12-18T04:54:44;92184.63;;;9.79;88.76
5952;BME280;3001;42.622;23.194;2022-12-18T04:57:11;92187.44;;;9.82;87.50
5952;BME280;3001;42.622;23.194;2022-12-18T04:59:37;92181.53;;;9.77;87.55
5952;BME280;3001;42.622;23.194;2022-12-18T05:02:04;92193.25;;;9.69;86.76
5952;BME280;3001;42.622;23.194;2022-12-18T05:04:31;92199.56;;;9.63;86.68
5952;BME280;3001;42.622;23.194;2022-12-18T05:06:59;92196.22;;;9.58;86.33
5952;BME280;3001;42.622;23.194;2022-12-18T05:09:26;92206.34;;;9.54;85.20
5952;BME280;3001;42.622;23.194;2022-12-18T05:11:52;92208.47;;;9.47;85.33
5952;BME280;3001;42.622;23.194;2022-12-18T05:14:19;92206.75;;;9.38;85.85
5952;BME280;3001;42.622;23.194;2022-12-18T05:16:46;92207.59;;;9.28;85.51
5952;BME280;3001;42.622;23.194;2022-12-18T05:19:13;92211.22;;;9.27;85.37
5952;BME280;3001;42.622;23.194;2022-12-18T05:21:39;92218.72;;;9.29;85.17
5952;BME280;3001;42.622;23.194;2022-12-18T05:24:07;92226.53;;;9.24;86.18
5952;BME280;3001;42.622;23.194;2022-12-18T05:26:34;92222.13;;;9.24;85.08
5952;BME280;3001;42.622;23.194;2022-12-18T05:29:01;92224.69;;;9.29;85.46
5952;BME280;3001;42.622;23.194;2022-12-18T05:31:28;92226.06;;;9.17;84.92
5952;BME280;3001;42.622;23.194;2022-12-18T05:33:54;92235.38;;;9.18;85.12
5952;BME280;3001;42.622;23.194;2022-12-18T05:36:21;92230.16;;;9.23;84.86
5952;BME280;3001;42.622;23.194;2022-12-18T05:38:48;92239.44;;;9.34;84.73
5952;BME280;3001;42.622;23.194;2022-12-18T05:41:16;92238.47;;;9.20;84.87
5952;BME280;3001;42.622;23.194;2022-12-18T05:43:43;92241.38;;;9.13;85.38
5952;BME280;3001;42.622;23.194;2022-12-18T05:46:12;92247.88;;;9.06;85.48
5952;BME280;3001;42.622;23.194;2022-12-18T05:48:39;92260.09;;;9.05;84.18
5952;BME280;3001;42.622;23.194;2022-12-18T05:51:07;92254.91;;;9.05;84.72
5952;BME280;3001;42.622;23.194;2022-12-18T05:53:35;92251.00;;;9.03;85.11
5952;BME280;3001;42.622;23.194;2022-12-18T05:56:04;92253.88;;;9.01;85.09
5952;BME280;3001;42.622;23.194;2022-12-18T05:58:33;92261.69;;;8.91;84.64
5952;BME280;3001;42.622;23.194;2022-12-18T06:01:07;92256.25;;;8.88;85.31
5952;BME280;3001;42.622;23.194;2022-12-18T06:03:33;92256.81;;;8.85;85.57
5952;BME280;3001;42.622;23.194;2022-12-18T06:06:00;92263.81;;;8.84;85.32
5952;BME280;3001;42.622;23.194;2022-12-18T06:08:27;92256.56;;;8.76;85.32
5952;BME280;3001;42.622;23.194;2022-12-18T06:10:54;92266.69;;;8.78;85.99
5952;BME280;3001;42.622;23.194;2022-12-18T06:13:22;92268.44;;;8.92;85.70
5952;BME280;3001;42.622;23.194;2022-12-18T06:15:50;92282.44;;;8.86;84.69
5952;BME280;3001;42.622;23.194;2022-12-18T06:18:17;92282.47;;;8.81;84.67
5952;BME280;3001;42.622;23.194;2022-12-18T06:20:43;92278.09;;;8.77;85.39
5952;BME280;3001;42.622;23.194;2022-12-18T06:23:10;92292.63;;;8.73;85.84
5952;BME280;3001;42.622;23.194;2022-12-18T06:25:38;92285.03;;;8.86;84.18
5952;BME280;3001;42.622;23.194;2022-12-18T06:28:05;92282.72;;;8.85;84.32
5952;BME280;3001;42.622;23.194;2022-12-18T06:30:32;92287.34;;;8.88;84.19
5952;BME280;3001;42.622;23.194;2022-12-18T06:33:00;92284.28;;;8.81;85.22
5952;BME280;3001;42.622;23.194;2022-12-18T06:35:27;92292.53;;;8.88;84.15
5952;BME280;3001;42.622;23.194;2022-12-18T06:37:54;92290.72;;;8.88;82.41
5952;BME280;3001;42.622;23.194;2022-12-18T06:40:21;92276.81;;;8.69;83.66
5952;BME280;3001;42.622;23.194;2022-12-18T06:42:47;92306.03;;;8.80;84.11
5952;BME280;3001;42.622;23.194;2022-12-18T06:45:14;92310.44;;;8.84;84.43
5952;BME280;3001;42.622;23.194;2022-12-18T06:47:41;92316.44;;;8.65;85.24
5952;BME280;3001;42.622;23.194;2022-12-18T06:50:09;92320.81;;;8.74;85.41
5952;BME280;3001;42.622;23.194;2022-12-18T06:52:36;92324.72;;;8.72;84.87
5952;BME280;3001;42.622;23.194;2022-12-18T06:55:05;92325.28;;;8.69;84.28
5952;BME280;3001;42.622;23.194;2022-12-18T06:57:32;92321.88;;;8.73;84.44
5952;BME280;3001;42.622;23.194;2022-12-18T06:59:58;92315.44;;;8.61;84.51
5952;BME280;3001;42.622;23.194;2022-12-18T07:02:25;92318.53;;;8.63;83.99
5952;BME280;3001;42.622;23.194;2022-12-18T07:04:52;92316.44;;;8.65;84.87
5952;BME280;3001;42.622;23.194;2022-12-18T07:07:20;92323.94;;;8.71;85.26
5952;BME280;3001;42.622;23.194;2022-12-18T07:09:46;92326.31;;;8.68;84.15
5952;BME280;3001;42.622;23.194;2022-12-18T07:12:14;92324.47;;;8.73;84.64
5952;BME280;3001;42.622;23.194;2022-12-18T07:14:41;92333.25;;;8.72;84.62
5952;BME280;3001;42.622;23.194;2022-12-18T07:17:08;92342.06;;;8.71;82.54
5952;BME280;3001;42.622;23.194;2022-12-18T07:19:34;92340.00;;;8.78;81.47
5952;BME280;3001;42.622;23.194;2022-12-18T07:22:01;92334.56;;;8.65;82.24
5952;BME280;3001;42.622;23.194;2022-12-18T07:24:29;92339.75;;;8.65;83.05
5952;BME280;3001;42.622;23.194;2022-12-18T07:26:56;92344.16;;;8.69;82.80
5952;BME280;3001;42.622;23.194;2022-12-18T07:29:23;92343.38;;;8.74;82.63
5952;BME280;3001;42.622;23.194;2022-12-18T07:31:49;92342.84;;;8.77;81.94
5952;BME280;3001;42.622;23.194;2022-12-18T07:34:17;92351.63;;;8.86;81.89
5952;BME280;3001;42.622;23.194;2022-12-18T07:36:43;92354.22;;;8.86;81.51
5952;BME280;3001;42.622;23.194;2022-12-18T07:39:11;92356.06;;;8.80;82.04
5952;BME280;3001;42.622;23.194;2022-12-18T07:41:40;92354.28;;;8.71;81.47
5952;BME280;3001;42.622;23.194;2022-12-18T07:44:11;92358.16;;;8.68;81.71
5952;BME280;3001;42.622;23.194;2022-12-18T07:46:38;92353.50;;;8.65;81.87
5952;BME280;3001;42.622;23.194;2022-12-18T07:49:05;92351.69;;;8.61;81.82
5952;BME280;3001;42.622;23.194;2022-12-18T07:51:32;92362.31;;;8.64;80.67
5952;BME280;3001;42.622;23.194;2022-12-18T07:53:59;92362.56;;;8.58;81.70
5952;BME280;3001;42.622;23.194;2022-12-18T07:56:25;92361.00;;;8.62;81.45
5952;BME280;3001;42.622;23.194;2022-12-18T07:58:54;92370.09;;;8.59;82.08
5952;BME280;3001;42.622;23.194;2022-12-18T08:01:20;92370.06;;;8.69;81.21
5952;BME280;3001;42.622;23.194;2022-12-18T08:03:47;92369.81;;;8.61;81.10
5952;BME280;3001;42.622;23.194;2022-12-18T08:06:14;92378.63;;;8.70;80.85
5952;BME280;3001;42.622;23.194;2022-12-18T08:08:41;92371.88;;;8.64;81.17
5952;BME280;3001;42.622;23.194;2022-12-18T08:11:07;92381.97;;;8.70;81.34
5952;BME280;3001;42.622;23.194;2022-12-18T08:13:34;92380.66;;;8.78;81.19
5952;BME280;3001;42.622;23.194;2022-12-18T08:16:04;92388.41;;;8.83;81.65
5952;BME280;3001;42.622;23.194;2022-12-18T08:18:32;92390.00;;;8.64;82.48
5952;BME280;3001;42.622;23.194;2022-12-18T08:21:07;92402.44;;;8.72;81.60
5952;BME280;3001;42.622;23.194;2022-12-18T08:23:34;92402.47;;;8.42;82.34
5952;BME280;3001;42.622;23.194;2022-12-18T08:26:01;92404.53;;;8.50;82.48
5952;BME280;3001;42.622;23.194;2022-12-18T08:28:27;92406.06;;;8.46;80.73
5952;BME280;3001;42.622;23.194;2022-12-18T08:30:54;92409.19;;;8.43;81.11
5952;BME280;3001;42.622;23.194;2022-12-18T08:33:22;92407.38;;;8.53;80.81
5952;BME280;3001;42.622;23.194;2022-12-18T08:35:50;92408.41;;;8.57;81.33
5952;BME280;3001;42.622;23.194;2022-12-18T08:38:17;92397.53;;;8.51;81.56
5952;BME280;3001;42.622;23.194;2022-12-18T08:40:44;92411.50;;;8.54;82.35
5952;BME280;3001;42.622;23.194;2022-12-18T08:43:11;92411.78;;;8.53;82.57
5952;BME280;3001;42.622;23.194;2022-12-18T08:45:56;92415.13;;;8.68;82.68
5952;BME280;3001;42.622;23.194;2022-12-18T08:48:24;92411.25;;;8.76;82.12
5952;BME280;3001;42.622;23.194;2022-12-18T08:50:54;92419.53;;;8.78;82.32
5952;BME280;3001;42.622;23.194;2022-12-18T08:53:21;92411.97;;;8.91;82.70
5952;BME280;3001;42.622;23.194;2022-12-18T08:55:48;92411.69;;;9.03;81.54
5952;BME280;3001;42.622;23.194;2022-12-18T08:58:15;92413.50;;;9.07;82.13
5952;BME280;3001;42.622;23.194;2022-12-18T09:00:41;92419.50;;;8.83;80.78
5952;BME280;3001;42.622;23.194;2022-12-18T09:03:11;92426.28;;;8.74;80.63
5952;BME280;3001;42.622;23.194;2022-12-18T09:05:39;92422.91;;;8.63;80.87
5952;BME280;3001;42.622;23.194;2022-12-18T09:08:06;92417.72;;;8.73;81.76
5952;BME280;3001;42.622;23.194;2022-12-18T09:10:33;92412.53;;;8.73;81.90
5952;BME280;3001;42.622;23.194;2022-12-18T09:13:00;92417.47;;;8.70;82.53
5952;BME280;3001;42.622;23.194;2022-12-18T09:15:27;92417.72;;;8.73;82.27
5952;BME280;3001;42.622;23.194;2022-12-18T09:17:54;92415.88;;;8.84;82.69
5952;BME280;3001;42.622;23.194;2022-12-18T09:20:20;92407.56;;;8.97;82.21
5952;BME280;3001;42.622;23.194;2022-12-18T09:22:48;92402.13;;;9.03;82.08
5952;BME280;3001;42.622;23.194;2022-12-18T09:25:15;92403.91;;;9.13;82.59
5952;BME280;3001;42.622;23.194;2022-12-18T09:27:42;92407.22;;;9.28;81.93
5952;BME280;3001;42.622;23.194;2022-12-18T09:30:10;92400.50;;;9.17;82.15
5952;BME280;3001;42.622;23.194;2022-12-18T09:32:36;92399.47;;;9.18;82.07
5952;BME280;3001;42.622;23.194;2022-12-18T09:35:04;92403.56;;;9.34;81.67
5952;BME280;3001;42.622;23.194;2022-12-18T09:37:30;92415.47;;;9.40;82.28
5952;BME280;3001;42.622;23.194;2022-12-18T09:39:58;92413.38;;;9.47;81.37
5952;BME280;3001;42.622;23.194;2022-12-18T09:42:25;92415.16;;;9.47;81.16
5952;BME280;3001;42.622;23.194;2022-12-18T09:44:53;92415.16;;;9.47;81.79
5952;BME280;3001;42.622;23.194;2022-12-18T09:47:23;92422.41;;;9.55;81.27
5952;BME280;3001;42.622;23.194;2022-12-18T09:49:54;92414.09;;;9.58;81.06
5952;BME280;3001;42.622;23.194;2022-12-18T09:52:25;92412.44;;;9.77;80.81
5952;BME280;3001;42.622;23.194;2022-12-18T09:54:56;92401.25;;;9.86;80.09
5952;BME280;3001;42.622;23.194;2022-12-18T09:57:26;92403.91;;;9.71;80.65
5952;BME280;3001;42.622;23.194;2022-12-18T09:59:56;92390.28;;;9.51;81.49
5952;BME280;3001;42.622;23.194;2022-12-18T10:02:26;92392.94;;;9.79;80.96
5952;BME280;3001;42.622;23.194;2022-12-18T10:05:04;92392.34;;;9.97;80.38
5952;BME280;3001;42.622;23.194;2022-12-18T10:07:42;92383.28;;;9.95;80.41
5952;BME280;3001;42.622;23.194;2022-12-18T10:10:18;92386.88;;;10.04;80.11
5952;BME280;3001;42.622;23.194;2022-12-18T10:12:54;92392.44;;;10.26;79.72
5952;BME280;3001;42.622;23.194;2022-12-18T10:15:33;92386.47;;;10.25;79.34
5952;BME280;3001;42.622;23.194;2022-12-18T10:18:08;92396.13;;;10.20;79.77
5952;BME280;3001;42.622;23.194;2022-12-18T10:20:44;92395.03;;;10.26;78.51
5952;BME280;3001;42.622;23.194;2022-12-18T10:23:14;92399.47;;;10.20;79.10
5952;BME280;3001;42.622;23.194;2022-12-18T10:25:53;92405.00;;;10.09;79.69
5952;BME280;3001;42.622;23.194;2022-12-18T10:28:23;92407.31;;;10.15;78.44
5952;BME280;3001;42.622;23.194;2022-12-18T10:30:49;92403.66;;;10.21;78.41
5952;BME280;3001;42.622;23.194;2022-12-18T10:33:18;92402.56;;;10.27;78.11
5952;BME280;3001;42.622;23.194;2022-12-18T10:35:47;92402.56;;;10.27;77.88
5952;BME280;3001;42.622;23.194;2022-12-18T10:38:23;92396.47;;;10.08;78.54
5952;BME280;3001;42.622;23.194;2022-12-18T10:40:52;92390.47;;;10.13;78.10
5952;BME280;3001;42.622;23.194;2022-12-18T10:43:25;92393.63;;;10.05;78.26
5952;BME280;3001;42.622;23.194;2022-12-18T10:46:02;92395.75;;;9.93;77.15
5952;BME280;3001;42.622;23.194;2022-12-18T10:48:31;92404.63;;;9.82;77.60
5952;BME280;3001;42.622;23.194;2022-12-18T10:50:59;92408.94;;;9.96;76.88
5952;BME280;3001;42.622;23.194;2022-12-18T10:53:28;92402.03;;;9.82;76.76
5952;BME280;3001;42.622;23.194;2022-12-18T10:55:57;92408.53;;;9.79;77.26
5952;BME280;3001;42.622;23.194;2022-12-18T10:58:28;92411.44;;;9.68;77.11
5952;BME280;3001;42.622;23.194;2022-12-18T11:01:06;92413.63;;;9.51;77.59
5952;BME280;3001;42.622;23.194;2022-12-18T11:03:35;92409.91;;;9.62;77.52
5952;BME280;3001;42.622;23.194;2022-12-18T11:06:05;92411.75;;;9.61;76.59
5952;BME280;3001;42.622;23.194;2022-12-18T11:08:32;92416.22;;;9.51;76.64
5952;BME280;3001;42.622;23.194;2022-12-18T11:11:00;92423.47;;;9.44;77.51
5952;BME280;3001;42.622;23.194;2022-12-18T11:13:29;92415.47;;;9.35;76.13
5952;BME280;3001;42.622;23.194;2022-12-18T11:15:57;92424.03;;;9.36;74.99
5952;BME280;3001;42.622;23.194;2022-12-18T11:18:27;92435.97;;;9.27;72.88
5952;BME280;3001;42.622;23.194;2022-12-18T11:20:56;92426.94;;;9.14;73.80
5952;BME280;3001;42.622;23.194;2022-12-18T11:23:24;92434.53;;;8.96;74.30
5952;BME280;3001;42.622;23.194;2022-12-18T11:25:57;92429.31;;;9.11;74.18
5952;BME280;3001;42.622;23.194;2022-12-18T11:28:37;92433.19;;;9.13;71.99
5952;BME280;3001;42.622;23.194;2022-12-18T11:31:19;92436.31;;;8.95;72.67
5952;BME280;3001;42.622;23.194;2022-12-18T11:33:54;92445.16;;;8.84;70.92
5952;BME280;3001;42.622;23.194;2022-12-18T11:36:23;92430.16;;;8.61;72.48
5952;BME280;3001;42.622;23.194;2022-12-18T11:38:52;92427.31;;;8.53;71.96
5952;BME280;3001;42.622;23.194;2022-12-18T11:41:25;92431.47;;;8.59;72.08
5952;BME280;3001;42.622;23.194;2022-12-18T11:44:23;92438.72;;;8.52;73.44
5952;BME280;3001;42.622;23.194;2022-12-18T11:46:55;92444.66;;;8.52;73.15
5952;BME280;3001;42.622;23.194;2022-12-18T11:49:27;92451.94;;;8.41;71.10
5952;BME280;3001;42.622;23.194;2022-12-18T11:51:58;92435.59;;;8.45;73.21
5952;BME280;3001;42.622;23.194;2022-12-18T11:54:26;92444.41;;;8.44;70.66
5952;BME280;3001;42.622;23.194;2022-12-18T11:56:56;92435.88;;;8.44;72.02
5952;BME280;3001;42.622;23.194;2022-12-18T11:59:33;92433.81;;;8.41;72.80
5952;BME280;3001;42.622;23.194;2022-12-18T12:02:29;92436.09;;;8.12;72.99
5952;BME280;3001;42.622;23.194;2022-12-18T12:05:18;92432.19;;;8.10;74.01
5952;BME280;3001;42.622;23.194;2022-12-18T12:07:53;92438.44;;;8.29;73.08
5952;BME280;3001;42.622;23.194;2022-12-18T12:10:33;92439.44;;;8.03;71.85
5952;BME280;3001;42.622;23.194;2022-12-18T12:13:18;92441.03;;;8.19;74.48
5952;BME280;3001;42.622;23.194;2022-12-18T12:15:59;92433.53;;;8.22;74.67
5952;BME280;3001;42.622;23.194;2022-12-18T12:18:37;92440.75;;;8.25;74.19
5952;BME280;3001;42.622;23.194;2022-12-18T12:21:14;92439.50;;;8.38;73.93
5952;BME280;3001;42.622;23.194;2022-12-18T12:23:47;92388.72;;;8.17;73.91
5952;BME280;3001;42.622;23.194;2022-12-18T12:26:19;92425.50;;;8.44;74.65
5952;BME280;3001;42.622;23.194;2022-12-18T12:28:59;92430.16;;;8.52;75.28
5952;BME280;3001;42.622;23.194;2022-12-18T12:31:44;92432.47;;;8.63;75.08
5952;BME280;3001;42.622;23.194;2022-12-18T12:34:20;92437.69;;;8.68;74.22
5952;BME280;3001;42.622;23.194;2022-12-18T12:37:01;92439.97;;;8.74;74.45
5952;BME280;3001;42.622;23.194;2022-12-18T12:39:35;92434.81;;;8.69;74.13
5952;BME280;3001;42.622;23.194;2022-12-18T12:42:04;92430.69;;;8.63;73.75
5952;BME280;3001;42.622;23.194;2022-12-18T12:44:52;92437.91;;;8.81;73.38
5952;BME280;3001;42.622;23.194;2022-12-18T12:47:27;92440.22;;;8.83;73.33
5952;BME280;3001;42.622;23.194;2022-12-18T12:49:56;92435.84;;;8.83;73.54
5952;BME280;3001;42.622;23.194;2022-12-18T12:52:29;92436.59;;;8.84;73.47
5952;BME280;3001;42.622;23.194;2022-12-18T12:54:58;92438.66;;;8.87;73.27
5952;BME280;3001;42.622;23.194;2022-12-18T12:57:30;92441.53;;;8.85;73.82
5952;BME280;3001;42.622;23.194;2022-12-18T13:00:04;92442.28;;;8.96;72.76
5952;BME280;3001;42.622;23.194;2022-12-18T13:02:35;92446.19;;;8.88;72.88
5952;BME280;3001;42.622;23.194;2022-12-18T13:05:11;92450.59;;;8.83;73.20
5952;BME280;3001;42.622;23.194;2022-12-18T13:07:47;92458.13;;;8.79;73.92
5952;BME280;3001;42.622;23.194;2022-12-18T13:10:39;92456.84;;;8.77;72.77
5952;BME280;3001;42.622;23.194;2022-12-18T13:13:08;92458.38;;;8.78;72.96
5952;BME280;3001;42.622;23.194;2022-12-18T13:15:38;92466.94;;;8.83;73.27
5952;BME280;3001;42.622;23.194;2022-12-18T13:18:18;92483.78;;;8.71;73.12
5952;BME280;3001;42.622;23.194;2022-12-18T13:20:47;92467.72;;;8.69;73.78
5952;BME280;3001;42.622;23.194;2022-12-18T13:23:33;92474.19;;;8.66;73.33
5952;BME280;3001;42.622;23.194;2022-12-18T13:29:02;92475.75;;;8.48;74.09
5952;BME280;3001;42.622;23.194;2022-12-18T13:31:59;92480.13;;;8.62;73.10
5952;BME280;3001;42.622;23.194;2022-12-18T13:34:29;92478.34;;;8.48;73.77
5952;BME280;3001;42.622;23.194;2022-12-18T13:36:57;92480.16;;;8.52;73.90
5952;BME280;3001;42.622;23.194;2022-12-18T13:39:45;92482.47;;;8.53;74.40